25/4/19
Time         Wind Dir  Wind Gust   Humidity       Temp   Tot Rain Wind Chill Heat Index  Dew Point   Barom SL Temp Out H Temp Out L  DailyRain   HourRain   24HrRain   RainRate   Wind Run   Deg Heat   Deg Cool  MonthRain
                          km/hr          %         C         mm         C         C         C         mb         C         C         mm         mm         mm      mm/hr         km         C         C         mm
0:00              214       16.1         94       14.5      122.0       12.8       18.0       13.5     1011.2       14.5       14.5        0.0        0.0       13.2       0.00      298.9       4.64       0.00       73.6
0:01              203       11.3         94       14.5      122.0       12.8       18.0       13.5     1011.2       14.5       14.5        0.0        0.0       13.2       0.00        0.4       0.04       0.00       73.6
0:04              210       12.9         94       14.5      122.0       14.5       18.0       13.5     1011.2       14.5       14.5        0.0        0.0       13.2       0.00        0.7       0.04       0.00       73.6
0:06              191       16.1         94       14.5      122.0       12.8       18.0       13.5     1011.2       14.5       14.5        0.0        0.0       13.2       0.00        1.1       0.04       0.00       73.6
0:08              220        9.7         94       14.5      122.0       14.5       18.0       13.5     1011.1       14.5       14.5        0.0        0.0       13.2       0.00        1.4       0.04       0.00       73.6
0:10              215       25.7         94       14.5      122.0        8.6       18.0       13.5     1011.1       14.6       14.5        0.0        0.0       13.2       0.00        1.8       0.04       0.00       73.6
0:12              219       25.7         94       14.6      122.0        9.4       18.0       13.6     1011.1       14.6       14.5        0.0        0.0       13.2       0.00        2.3       0.04       0.00       73.6
0:13              204       24.1         94       14.5      122.0        9.4       18.0       13.5     1011.1       14.6       14.5        0.0        0.0       13.2       0.00        2.7       0.04       0.00       73.6
0:16              214       11.3         94       14.6      122.0       12.2       18.0       13.6     1011.0       14.6       14.5        0.0        0.0       13.2       0.00        3.1       0.07       0.00       73.6
0:18              217       11.3         94       14.6      122.0       14.6       18.0       13.6     1011.0       14.6       14.5        0.0        0.0       13.2       0.00        3.4       0.07       0.00       73.6
0:20              218       11.3         94       14.6      122.0       12.2       18.0       13.6     1011.0       14.6       14.5        0.0        0.0       13.2       0.00        3.7       0.07       0.00       73.6
0:22              225       22.5         94       14.6      122.0        9.8       18.0       13.6     1011.0       14.6       14.5        0.0        0.0       13.2       0.00        4.1       0.07       0.00       73.6
0:24              214       16.1         94       14.6      122.0       13.5       18.0       13.6     1011.0       14.6       14.5        0.0        0.0       13.2       0.00        4.5       0.07       0.00       73.6
0:25              177       19.3         94       14.6      122.0       10.2       18.0       13.6     1011.0       14.6       14.5        0.0        0.0       13.2       0.00        4.8       0.07       0.00       73.6
0:27              198       24.1         94       14.6      122.0       11.5       18.0       13.6     1011.0       14.6       14.5        0.0        0.0       13.2       0.00        5.2       0.07       0.00       73.6
0:30              213       17.7         94       14.6      122.0       10.2       18.1       13.7     1011.0       14.6       14.5        0.0        0.0       13.2       0.00        5.8       0.07       0.00       73.6
0:32              209       16.1         94       14.6      122.0       10.9       18.1       13.7     1010.9       14.6       14.5        0.0        0.0       13.2       0.00        6.3       0.11       0.00       73.6
0:33              199       17.7         94       14.6      122.0       13.6       18.1       13.7     1010.8       14.6       14.5        0.0        0.0       13.2       0.00        6.8       0.11       0.00       73.6
0:36              201       30.6         94       14.6      122.0       10.9       18.1       13.7     1010.8       14.6       14.5        0.0        0.0       13.2       0.00        7.2       0.11       0.00       73.6
0:38              213       14.5         94       14.6      122.0       11.6       18.1       13.7     1010.8       14.6       14.5        0.0        0.0       13.2       0.00        7.6       0.11       0.00       73.6
0:40              213       22.5         93       14.6      122.0        8.8       18.0       13.5     1010.9       14.6       14.5        0.0        0.0       13.2       0.00        8.2       0.11       0.00       73.6
0:42              231       16.1         93       14.7      122.0       14.7       18.0       13.5     1010.8       14.7       14.5        0.0        0.0       13.2       0.00        8.6       0.11       0.00       73.6
0:44              217       19.3         93       14.7      122.0        9.6       18.0       13.5     1010.8       14.7       14.5        0.0        0.0       13.2       0.00        9.0       0.11       0.00       73.6
0:45              210       20.9         93       14.7      122.0       12.3       18.0       13.5     1010.7       14.7       14.5        0.0        0.0       13.2       0.00        9.5       0.14       0.00       73.6
0:48              239       17.7         93       14.7      122.0        9.9       18.0       13.5     1010.9       14.7       14.5        0.0        0.0       13.2       0.00        9.8       0.14       0.00       73.6
0:50              214       25.7         93       14.7      122.0       13.0       18.1       13.6     1010.8       14.7       14.5        0.0        0.0       13.2       0.00       10.2       0.14       0.00       73.6
0:52              213       16.1         93       14.7      122.0       10.4       18.1       13.6     1010.7       14.7       14.5        0.0        0.0       13.2       0.00       10.6       0.14       0.00       73.6
0:54              213       17.7         93       14.7      122.0       11.0       18.1       13.6     1010.7       14.7       14.5        0.0        0.0       13.2       0.00       11.0       0.14       0.00       73.6
0:56              217       14.5         93       14.8      122.0       14.8       18.2       13.7     1010.7       14.8       14.5        0.0        0.0       13.2       0.00       11.4       0.14       0.00       73.6
0:58              240       19.3         93       14.8      122.0       10.4       18.2       13.7     1010.8       14.8       14.5        0.0        0.0       13.2       0.00       11.6       0.14       0.00       73.6
1:00              242        4.8         93       14.8      122.0       14.8       18.2       13.7     1010.8       14.8       14.5        0.0        0.0       13.2       0.00       11.9       0.14       0.00       73.6
1:02              245        8.0         93       14.8      122.0       13.8       18.2       13.7     1010.8       14.8       14.5        0.0        0.0       13.2       0.00       12.0       0.18       0.00       73.6
1:04              229       12.9         93       14.8      122.0       13.8       18.2       13.7     1010.9       14.8       14.5        0.0        0.0       13.2       0.00       12.3       0.18       0.00       73.6
1:06              232        9.7         93       14.8      122.0       13.8       18.2       13.7     1010.8       14.8       14.5        0.0        0.0       13.2       0.00       12.5       0.18       0.00       73.6
1:08              240       19.3         93       14.8      122.2       13.1       18.2       13.7     1010.9       14.8       14.5        0.2        0.2       13.4       0.00       12.7       0.18       0.00       73.8
1:10              226       14.5         93       14.7      122.2       11.0       18.1       13.6     1011.0       14.8       14.5        0.2        0.2       13.4       0.00       13.1       0.18       0.00       73.8
1:12              234       14.5         93       14.7      122.2       14.7       18.0       13.5     1010.8       14.8       14.5        0.2        0.2       13.4       0.00       13.6       0.18       0.00       73.8
1:14              232       16.1         93       14.6      122.2       14.6       18.0       13.5     1010.8       14.8       14.5        0.2        0.2       13.4       0.00       13.9       0.18       0.00       73.8
1:16              248       25.7         93       14.6      122.2        9.8       17.9       13.4     1010.7       14.8       14.5        0.2        0.2       13.4       0.00       14.2       0.21       0.00       73.8
1:18              240        8.0         93       14.5      122.2       14.5       17.9       13.4     1010.6       14.8       14.5        0.2        0.2       13.4       0.00       14.6       0.21       0.00       73.8
1:20              243       14.5         93       14.5      122.2       13.5       17.9       13.4     1010.6       14.8       14.5        0.2        0.2       13.4       0.00       15.0       0.21       0.00       73.8
1:22              224        9.7         93       14.5      122.2       12.8       17.9       13.4     1010.7       14.8       14.5        0.2        0.2       13.4       0.00       15.3       0.21       0.00       73.8
1:23              221       14.5         93       14.5      122.2       12.8       17.9       13.4     1010.6       14.8       14.5        0.2        0.2       13.4       0.00       15.5       0.21       0.00       73.8
1:26              213       11.3         93       14.5      122.2       12.8       17.9       13.4     1010.5       14.8       14.5        0.2        0.2       13.4       0.00       15.9       0.21       0.00       73.8
1:28              229       19.3         93       14.5      122.2        9.7       17.9       13.4     1010.6       14.8       14.5        0.2        0.2       13.4       0.00       16.3       0.21       0.00       73.8
1:30              224       12.9         93       14.5      122.2       14.5       17.9       13.4     1010.6       14.8       14.5        0.2        0.2       13.4       0.00       16.6       0.21       0.00       73.8
1:32              239       20.9         93       14.5      122.2       10.1       17.9       13.4     1010.7       14.8       14.5        0.2        0.2       13.4       0.00       16.9       0.25       0.00       73.8
1:34              238        8.0         93       14.5      122.2       14.5       17.9       13.4     1010.6       14.8       14.5        0.2        0.2       13.4       0.00       17.1       0.25       0.00       73.8
1:35              239       12.9         93       14.4      122.2       14.4       17.8       13.3     1010.6       14.8       14.4        0.2        0.2       13.4       0.00       17.3       0.25       0.00       73.8
1:38              246       17.7         93       14.4      122.2       10.7       17.8       13.3     1010.6       14.8       14.4        0.2        0.2       13.4       0.00       17.6       0.25       0.00       73.8
1:40              240       16.1         93       14.4      122.2       13.4       17.8       13.3     1010.6       14.8       14.4        0.2        0.2       13.4       0.00       17.9       0.25       0.00       73.8
1:42              254        4.8         93       14.3      122.2       14.3       17.7       13.2     1010.4       14.8       14.3        0.2        0.2       13.4       0.00       18.2       0.25       0.00       73.8
1:44              233       14.5         93       14.3      122.2       11.9       17.7       13.2     1010.5       14.8       14.3        0.2        0.2       13.4       0.00       18.4       0.25       0.00       73.8
1:46              241        8.0         93       14.3      122.2       13.3       17.7       13.2     1010.5       14.8       14.3        0.2        0.2       13.4       0.00       18.8       0.29       0.00       73.8
1:48              246       14.5         93       14.2      122.2       10.4       17.6       13.1     1010.6       14.8       14.2        0.2        0.2       13.4       0.00       19.1       0.29       0.00       73.8
1:50              231       11.3         93       14.2      122.2       14.2       17.5       13.1     1010.6       14.8       14.2        0.2        0.2       13.4       0.00       19.4       0.29       0.00       73.8
1:52              254       12.9         93       14.2      122.4       14.2       17.5       13.1     1010.7       14.8       14.2        0.4        0.4       13.6       0.00       19.7       0.29       0.00       74.0
1:54              256       14.5         93       14.1      122.4       11.7       17.5       13.0     1010.6       14.8       14.1        0.4        0.4       13.6       0.00       20.0       0.29       0.00       74.0
1:56              260       16.1         93       14.1      122.4       14.1       17.5       13.0     1010.6       14.8       14.1        0.4        0.4       13.6       0.00       20.3       0.29       0.00       74.0
1:58              236       12.9         93       14.1      122.4       14.1       17.4       12.9     1010.7       14.8       14.1        0.4        0.4       13.6       0.00       20.5       0.29       0.00       74.0
2:00              249        6.4         93       14.1      122.4       14.1       17.4       12.9     1010.6       14.8       14.1        0.4        0.4       13.6       0.00       20.7       0.29       0.00       74.0
2:01              248        8.0         93       14.1      122.4       14.1       17.4       12.9     1010.6       14.8       14.1        0.4        0.4       13.6       0.00       20.9       0.33       0.00       74.0
2:04              248       14.5         93       14.1      122.4       11.6       17.4       12.9     1010.7       14.8       14.1        0.4        0.4       13.6       0.00       21.2       0.33       0.00       74.0
2:06              244        8.0         93       14.1      122.4       14.1       17.4       12.9     1010.6       14.8       14.0        0.4        0.4       13.6       0.00       21.6       0.33       0.00       74.0
2:08              257        4.8         93       14.0      122.4       14.0       17.4       12.9     1010.7       14.8       14.0        0.4        0.4       13.6       0.00       21.8       0.33       0.00       74.0
2:10              252       14.5         93       14.0      122.4       14.0       17.4       12.9     1010.8       14.8       14.0        0.4        0.4       13.6       0.00       22.1       0.33       0.00       74.0
2:11              243        9.7         93       14.0      122.4       14.0       17.4       12.9     1010.7       14.8       14.0        0.4        0.4       13.6       0.00       22.3       0.33       0.00       74.0
2:14              241       12.9         93       13.9      122.4       10.8       17.3       12.8     1010.7       14.8       13.9        0.4        0.4       13.6       0.00       22.5       0.33       0.00       74.0
2:16              242       14.5         93       13.9      122.4       10.1       17.3       12.8     1010.8       14.8       13.9        0.4        0.2       13.6       0.00       22.8       0.37       0.00       74.0
2:17              248        6.4         93       13.9      122.4       13.9       17.3       12.8     1010.7       14.8       13.9        0.4        0.2       13.6       0.00       23.1       0.37       0.00       74.0
2:19              253       11.3         94       13.9      122.4       13.9       17.4       13.0     1010.8       14.8       13.9        0.4        0.2       13.6       0.00       23.2       0.37       0.00       74.0
2:22              258       11.3         94       13.9      122.4       13.9       17.4       13.0     1010.8       14.8       13.9        0.4        0.2       13.6       0.00       23.5       0.37       0.00       74.0
2:24              252        6.4         94       13.9      122.4       13.9       17.4       13.0     1010.7       14.8       13.9        0.4        0.2       13.6       0.00       23.7       0.37       0.00       74.0
2:26              244       14.5         94       13.9      122.4       11.5       17.4       13.0     1010.8       14.8       13.9        0.4        0.2       13.6       0.00       24.0       0.37       0.00       74.0
2:28              247        8.0         94       13.9      122.4       13.9       17.4       12.9     1010.8       14.8       13.9        0.4        0.2       13.6       0.00       24.3       0.37       0.00       74.0
2:30              244       11.3         94       13.9      122.4       13.9       17.4       12.9     1010.8       14.8       13.9        0.4        0.2       13.6       0.00       24.6       0.37       0.00       74.0
2:31              254       11.3         94       13.9      122.4       12.8       17.4       12.9     1010.8       14.8       13.9        0.4        0.2       13.6       0.00       24.9       0.41       0.00       74.0
2:34              248       11.3         94       13.9      122.6       11.4       17.4       12.9     1010.9       14.8       13.9        0.6        0.4       13.8       0.00       25.2       0.41       0.00       74.2
2:36              248        6.4         94       13.9      122.6       13.9       17.4       12.9     1011.0       14.8       13.8        0.6        0.4       13.8       0.00       25.4       0.41       0.00       74.2
2:38              248       11.3         94       13.9      122.6       13.9       17.4       12.9     1011.0       14.8       13.8        0.6        0.4       13.8       0.00       25.6       0.41       0.00       74.2
2:40              250        4.8         94       13.9      122.6       13.9       17.4       12.9     1011.0       14.8       13.8        0.6        0.4       13.8       0.00       25.8       0.41       0.00       74.2
2:42              250        3.2         94       13.9      122.6       13.9       17.4       12.9     1010.9       14.8       13.8        0.6        0.4       13.8       0.00       25.9       0.41       0.00       74.2
2:44              236        6.4         94       13.9      122.6       13.9       17.4       12.9     1011.0       14.8       13.8        0.6        0.4       13.8       0.00       26.1       0.41       0.00       74.2
2:46              244       11.3         94       13.9      122.6       13.9       17.4       12.9     1011.0       14.8       13.8        0.6        0.4       13.8       0.00       26.3       0.45       0.00       74.2
2:48              254       11.3         94       13.8      122.6       13.8       17.3       12.9     1010.9       14.8       13.8        0.6        0.4       13.8       0.00       26.5       0.45       0.00       74.2
2:50              254        8.0         94       13.8      122.6       12.8       17.3       12.9     1011.0       14.8       13.8        0.6        0.4       13.8       0.00       26.7       0.45       0.00       74.2
2:52              253        8.0         94       13.8      122.6       13.8       17.3       12.9     1011.0       14.8       13.8        0.6        0.4       13.8       0.00       26.9       0.45       0.00       74.2
2:54              263       14.5         94       13.8      122.6       11.3       17.2       12.8     1011.0       14.8       13.8        0.6        0.4       13.8       0.00       27.2       0.45       0.00       74.2
2:56              254       14.5         94       13.8      122.6       13.8       17.2       12.8     1011.0       14.8       13.8        0.6        0.4       13.8       0.00       27.4       0.45       0.00       74.2
2:57              248        8.0         94       13.8      122.6       13.8       17.2       12.8     1011.0       14.8       13.8        0.6        0.4       13.8       0.00       27.6       0.45       0.00       74.2
3:00              259        9.7         94       13.8      122.6       13.8       17.2       12.8     1011.1       14.8       13.8        0.6        0.4       13.8       0.00       27.9       0.45       0.00       74.2
3:02              256        8.0         94       13.8      122.6       13.8       17.2       12.8     1011.1       14.8       13.8        0.6        0.2       13.8       0.00       28.1       0.50       0.00       74.2
3:04              254       11.3         94       13.8      122.6       13.8       17.2       12.8     1011.1       14.8       13.8        0.6        0.2       13.8       0.00       28.3       0.50       0.00       74.2
3:06              256       14.5         94       13.8      122.6       13.8       17.2       12.8     1011.0       14.8       13.8        0.6        0.2       13.8       0.00       28.5       0.50       0.00       74.2
3:08              256       11.3         94       13.8      122.6       13.8       17.2       12.8     1011.1       14.8       13.8        0.6        0.2       13.8       0.00       28.8       0.50       0.00       74.2
3:10              256        6.4         94       13.8      122.6       13.8       17.2       12.8     1011.0       14.8       13.8        0.6        0.2       13.8       0.00       29.0       0.50       0.00       74.2
3:12              257        3.2         94       13.8      122.6       13.8       17.2       12.8     1011.1       14.8       13.7        0.6        0.2       13.8       0.00       29.1       0.50       0.00       74.2
3:14              257        4.8         94       13.8      122.6       13.8       17.2       12.8     1011.1       14.8       13.7        0.6        0.2       13.8       0.00       29.2       0.50       0.00       74.2
3:16              258        6.4         94       13.7      122.6       13.7       17.2       12.8     1011.0       14.8       13.7        0.6        0.2       13.8       0.00       29.4       0.54       0.00       74.2
3:18              259        6.4         94       13.6      122.6       13.6       17.1       12.7     1011.1       14.8       13.6        0.6        0.2       13.8       0.00       29.5       0.54       0.00       74.2
3:20              259        6.4         94       13.5      122.8       13.5       17.0       12.6     1011.1       14.8       13.5        0.8        0.4       14.0       0.00       29.7       0.54       0.00       74.4
3:22              259        6.4         94       13.4      122.8       13.4       16.9       12.5     1011.2       14.8       13.4        0.8        0.4       14.0       0.00       29.8       0.54       0.00       74.4
3:24              259        4.8         94       13.4      122.8       13.4       16.9       12.4     1011.0       14.8       13.4        0.8        0.4       14.0       0.00       29.9       0.54       0.00       74.4
3:26              259        6.4         94       13.5      122.8       13.5       17.0       12.6     1011.0       14.8       13.4        0.8        0.4       14.0       0.00       30.0       0.54       0.00       74.4
3:28              254        4.8         94       13.6      122.8       13.6       17.0       12.6     1011.1       14.8       13.4        0.8        0.4       14.0       0.00       30.1       0.54       0.00       74.4
3:30              254       11.3         94       13.6      122.8       13.6       17.0       12.6     1011.1       14.8       13.4        0.8        0.4       14.0       0.00       30.3       0.54       0.00       74.4
3:31              253        6.4         94       13.6      122.8       13.6       17.0       12.6     1011.0       14.8       13.4        0.8        0.4       14.0       0.00       30.5       0.59       0.00       74.4
3:34              246        6.4         94       13.6      122.8       13.6       17.0       12.6     1011.0       14.8       13.4        0.8        0.4       14.0       0.00       30.6       0.59       0.00       74.4
3:36              245        6.4         94       13.6      122.8       13.6       17.0       12.6     1011.0       14.8       13.4        0.8        0.4       14.0       0.00       30.8       0.59       0.00       74.4
3:38              233        6.4         94       13.6      122.8       13.6       17.0       12.6     1011.0       14.8       13.4        0.8        0.4       14.0       0.00       30.9       0.59       0.00       74.4
3:40              234        9.7         94       13.6      122.8       13.6       17.0       12.6     1011.1       14.8       13.4        0.8        0.4       14.0       0.00       31.1       0.59       0.00       74.4
3:42              234        6.4         94       13.6      122.8       13.6       17.0       12.6     1011.2       14.8       13.4        0.8        0.4       14.0       0.00       31.2       0.59       0.00       74.4
3:44              234       12.9         94       13.5      122.8       13.5       17.0       12.6     1011.2       14.8       13.4        0.8        0.4       14.0       0.00       31.5       0.59       0.00       74.4
3:46              233        8.0         94       13.5      122.8       13.5       17.0       12.6     1011.2       14.8       13.4        0.8        0.2       14.0       0.00       31.6       0.64       0.00       74.4
3:48              226       11.3         94       13.5      122.8       13.5       17.0       12.6     1011.0       14.8       13.4        0.8        0.2       14.0       0.00       31.8       0.64       0.00       74.4
3:50              227        8.0         94       13.4      122.8       13.4       16.9       12.5     1011.1       14.8       13.4        0.8        0.2       14.0       0.00       32.0       0.64       0.00       74.4
3:52              230        4.8         94       13.4      122.8       13.4       16.9       12.5     1011.2       14.8       13.4        0.8        0.2       14.0       0.00       32.2       0.64       0.00       74.4
3:53              229        6.4         94       13.4      122.8       13.4       16.9       12.5     1011.2       14.8       13.4        0.8        0.2       14.0       0.00       32.3       0.64       0.00       74.4
3:55              232        6.4         94       13.4      122.8       13.4       16.9       12.5     1011.3       14.8       13.4        0.8        0.2       14.0       0.00       32.5       0.64       0.00       74.4
3:58              232        4.8         94       13.4      122.8       13.4       16.9       12.5     1011.3       14.8       13.4        0.8        0.2       14.0       0.00       32.6       0.64       0.00       74.4
4:00              229       11.3         94       13.4      122.8       13.4       16.9       12.5     1011.4       14.8       13.4        0.8        0.2       14.0       0.00       32.9       0.64       0.00       74.4
4:02              229        6.4         94       13.4      122.8       13.4       16.9       12.4     1011.4       14.8       13.4        0.8        0.2       14.0       0.00       33.0       0.68       0.00       74.4
4:04              228        6.4         94       13.4      122.8       13.4       16.9       12.4     1011.4       14.8       13.4        0.8        0.2       14.0       0.00       33.2       0.68       0.00       74.4
4:06              229        4.8         94       13.4      122.8       13.4       16.9       12.4     1011.4       14.8       13.4        0.8        0.2       14.0       0.00       33.4       0.68       0.00       74.4
4:08              238        3.2         94       13.4      122.8       13.4       16.9       12.4     1011.5       14.8       13.4        0.8        0.2       14.0       0.00       33.5       0.68       0.00       74.4
4:10              238        4.8         94       13.4      122.8       13.4       16.9       12.4     1011.5       14.8       13.4        0.8        0.2       14.0       0.00       33.7       0.68       0.00       74.4
4:12              239        9.7         94       13.3      122.8       13.3       16.8       12.4     1011.5       14.8       13.3        0.8        0.2       14.0       0.00       33.8       0.68       0.00       74.4
4:14              240        4.8         94       13.3      122.8       13.3       16.8       12.4     1011.6       14.8       13.3        0.8        0.2       14.0       0.00       33.9       0.68       0.00       74.4
4:16              240        4.8         94       13.3      122.8       13.3       16.8       12.4     1011.5       14.8       13.3        0.8        0.2       14.0       0.00       34.0       0.73       0.00       74.4
4:18              240        4.8         94       13.3      122.8       13.3       16.8       12.4     1011.6       14.8       13.3        0.8        0.2       14.0       0.00       34.1       0.73       0.00       74.4
4:19              242        8.0         94       13.3      122.8       12.3       16.8       12.4     1011.5       14.8       13.3        0.8        0.2       14.0       0.00       34.3       0.73       0.00       74.4
4:22              243       16.1         94       13.3      122.8       11.5       16.7       12.3     1011.6       14.8       13.3        0.8        0.2       14.0       0.00       34.5       0.73       0.00       74.4
4:24              244        4.8         94       13.3      122.8       13.3       16.7       12.3     1011.6       14.8       13.3        0.8        0.2       14.0       0.00       34.7       0.73       0.00       74.4
4:26              251        4.8         94       13.2      122.8       13.2       16.7       12.3     1011.6       14.8       13.2        0.8        0.2       14.0       0.00       34.9       0.73       0.00       74.4
4:28              252        1.6         94       13.2      122.8       13.2       16.7       12.3     1011.6       14.8       13.2        0.8        0.2       14.0       0.00       35.1       0.73       0.00       74.4
4:30              252        8.0         94       13.2      122.8       12.1       16.7       12.3     1011.6       14.8       13.2        0.8        0.2       14.0       0.00       35.2       0.73       0.00       74.4
4:31              251        6.4         94       13.2      122.8       13.2       16.6       12.2     1011.6       14.8       13.2        0.8        0.0       14.0       0.00       35.4       0.78       0.00       74.4
4:34              251        4.8         94       13.2      122.8       13.2       16.6       12.2     1011.6       14.8       13.2        0.8        0.0       14.0       0.00       35.5       0.78       0.00       74.4
4:36              250        3.2         94       13.2      122.8       13.2       16.6       12.2     1011.6       14.8       13.2        0.8        0.0       14.0       0.00       35.7       0.78       0.00       74.4
4:38              248        6.4         94       13.2      122.8       13.2       16.6       12.2     1011.6       14.8       13.2        0.8        0.0       14.0       0.00       35.8       0.78       0.00       74.4
4:40              248        4.8         94       13.2      122.8       13.2       16.6       12.2     1011.6       14.8       13.1        0.8        0.0       14.0       0.00       35.9       0.78       0.00       74.4
4:42              248        6.4         94       13.2      122.8       13.2       16.6       12.2     1011.7       14.8       13.1        0.8        0.0       14.0       0.00       36.0       0.78       0.00       74.4
4:44              247        8.0         94       13.1      122.8       13.1       16.6       12.2     1011.7       14.8       13.1        0.8        0.0       14.0       0.00       36.2       0.78       0.00       74.4
4:46              246        4.8         94       13.1      122.8       13.1       16.6       12.2     1011.7       14.8       13.1        0.8        0.0       14.0       0.00       36.3       0.83       0.00       74.4
4:48              246        6.4         94       13.1      122.8       13.1       16.6       12.2     1011.7       14.8       13.1        0.8        0.0       14.0       0.00       36.4       0.83       0.00       74.4
4:50              246        4.8         94       13.1      122.8       13.1       16.6       12.2     1011.7       14.8       13.1        0.8        0.0       14.0       0.00       36.5       0.83       0.00       74.4
4:52              243        6.4         94       13.1      122.8       13.1       16.6       12.2     1011.7       14.8       13.1        0.8        0.0       14.0       0.00       36.7       0.83       0.00       74.4
4:54              244        6.4         94       13.1      122.8       13.1       16.6       12.2     1011.7       14.8       13.1        0.8        0.0       14.0       0.00       36.8       0.83       0.00       74.4
4:56              244        6.4         94       13.1      122.8       13.1       16.6       12.2     1011.7       14.8       13.1        0.8        0.0       14.0       0.00       36.9       0.83       0.00       74.4
4:57              243        4.8         94       13.1      122.8       13.1       16.6       12.2     1011.8       14.8       13.1        0.8        0.0       14.0       0.00       37.0       0.83       0.00       74.4
5:00              237        9.7         94       13.1      122.8       13.1       16.6       12.2     1011.8       14.8       13.1        0.8        0.0       14.0       0.00       37.2       0.83       0.00       74.4
5:02              236        8.0         94       13.1      122.8       13.1       16.6       12.2     1011.8       14.8       13.1        0.8        0.0       14.0       0.00       37.3       0.88       0.00       74.4
5:04              236        4.8         94       13.1      122.8       13.1       16.5       12.1     1011.8       14.8       13.1        0.8        0.0       14.0       0.00       37.4       0.88       0.00       74.4
5:06              235        6.4         94       13.1      122.8       13.1       16.6       12.2     1011.9       14.8       13.1        0.8        0.0       14.0       0.00       37.5       0.88       0.00       74.4
5:08              235        4.8         94       13.1      122.8       13.1       16.6       12.2     1011.9       14.8       13.1        0.8        0.0       14.0       0.00       37.7       0.88       0.00       74.4
5:09              234        4.8         94       13.1      122.8       13.1       16.5       12.1     1011.9       14.8       13.1        0.8        0.0       14.0       0.00       37.8       0.88       0.00       74.4
5:12              235        4.8         94       13.1      122.8       13.1       16.6       12.2     1012.0       14.8       13.1        0.8        0.0       14.0       0.00       37.9       0.88       0.00       74.4
5:13              234        6.4         94       13.1      122.8       13.1       16.6       12.2     1012.0       14.8       13.1        0.8        0.0       14.0       0.00       38.1       0.88       0.00       74.4
5:15              236        8.0         94       13.1      122.8       13.1       16.6       12.2     1012.1       14.8       13.1        0.8        0.0       14.0       0.00       38.2       0.93       0.00       74.4
5:18              236        8.0         94       13.1      122.8       13.1       16.6       12.2     1012.1       14.8       13.1        0.8        0.0       14.0       0.00       38.3       0.93       0.00       74.4
5:20              236        4.8         94       13.1      122.8       13.1       16.6       12.2     1012.1       14.8       13.1        0.8        0.0       14.0       0.00       38.4       0.93       0.00       74.4
5:21              238        3.2         94       13.1      122.8       13.1       16.6       12.2     1012.1       14.8       13.1        0.8        0.0       14.0       0.00       38.6       0.93       0.00       74.4
5:24              237        6.4         94       13.1      122.8       13.1       16.6       12.2     1012.1       14.8       13.1        0.8        0.0       14.0       0.00       38.7       0.93       0.00       74.4
5:26              237        4.8         94       13.1      122.8       13.1       16.6       12.2     1012.1       14.8       13.1        0.8        0.0       14.0       0.00       38.8       0.93       0.00       74.4
5:27              237        6.4         94       13.1      122.8       13.1       16.6       12.2     1012.2       14.8       13.1        0.8        0.0       14.0       0.00       38.9       0.93       0.00       74.4
5:30              239        4.8         94       13.1      122.8       13.1       16.6       12.2     1012.2       14.8       13.1        0.8        0.0       14.0       0.00       39.0       0.93       0.00       74.4
5:32              239        4.8         94       13.1      122.8       13.1       16.6       12.2     1012.4       14.8       13.1        0.8        0.0       14.0       0.00       39.2       0.99       0.00       74.4
5:34              238        6.4         94       13.1      122.8       13.1       16.6       12.2     1012.4       14.8       13.1        0.8        0.0       14.0       0.00       39.3       0.99       0.00       74.4
5:36              238        6.4         94       13.1      122.8       13.1       16.6       12.2     1012.4       14.8       13.1        0.8        0.0       14.0       0.00       39.4       0.99       0.00       74.4
5:38              238        3.2         94       13.1      122.8       13.1       16.6       12.2     1012.4       14.8       13.1        0.8        0.0       14.0       0.00       39.5       0.99       0.00       74.4
5:39              239        8.0         94       13.1      122.8       13.1       16.6       12.2     1012.5       14.8       13.1        0.8        0.0       14.0       0.00       39.7       0.99       0.00       74.4
5:42              238        4.8         94       13.1      122.8       13.1       16.6       12.2     1012.5       14.8       13.1        0.8        0.0       14.0       0.00       39.8       0.99       0.00       74.4
5:44              238        4.8         94       13.1      122.8       13.1       16.6       12.2     1012.5       14.8       13.1        0.8        0.0       14.0       0.00       39.9       0.99       0.00       74.4
5:46              238        4.8         94       13.1      122.8       13.1       16.6       12.2     1012.6       14.8       13.1        0.8        0.0       14.0       0.00       40.0       1.04       0.00       74.4
5:48              239        3.2         94       13.1      122.8       13.1       16.6       12.2     1012.6       14.8       13.1        0.8        0.0       14.0       0.00       40.2       1.04       0.00       74.4
5:50              239        6.4         94       13.1      122.8       13.1       16.6       12.2     1012.6       14.8       13.1        0.8        0.0       14.0       0.00       40.3       1.04       0.00       74.4
5:51              239        3.2         94       13.1      122.8       13.1       16.6       12.2     1012.6       14.8       13.1        0.8        0.0       14.0       0.00       40.4       1.04       0.00       74.4
5:54              239        6.4         94       13.1      122.8       13.1       16.6       12.2     1012.6       14.8       13.1        0.8        0.0       14.0       0.00       40.5       1.04       0.00       74.4
5:56              238        6.4         94       13.1      122.8       13.1       16.6       12.2     1012.7       14.8       13.1        0.8        0.0       14.0       0.00       40.6       1.04       0.00       74.4
5:58              238        4.8         94       13.1      122.8       13.1       16.6       12.2     1012.8       14.8       13.1        0.8        0.0       14.0       0.00       40.8       1.04       0.00       74.4
6:00              237        4.8         94       13.1      122.8       13.1       16.6       12.2     1012.7       14.8       13.1        0.8        0.0       14.0       0.00       40.9       1.04       0.00       74.4
6:02              237        6.4         94       13.1      122.8       13.1       16.6       12.2     1012.8       14.8       13.1        0.8        0.0       14.0       0.00       41.1       1.09       0.00       74.4
6:04              236        4.8         94       13.1      122.8       13.1       16.6       12.2     1012.9       14.8       13.1        0.8        0.0       14.0       0.00       41.2       1.09       0.00       74.4
6:05              237        6.4         94       13.2      122.8       13.2       16.6       12.2     1012.9       14.8       13.1        0.8        0.0       14.0       0.00       41.3       1.09       0.00       74.4
6:08              236        6.4         94       13.2      122.8       13.2       16.6       12.2     1013.0       14.8       13.1        0.8        0.0       14.0       0.00       41.4       1.09       0.00       74.4
6:10              236        4.8         94       13.1      122.8       13.1       16.6       12.2     1013.0       14.8       13.1        0.8        0.0       14.0       0.00       41.5       1.09       0.00       74.4
6:12              236        6.4         94       13.2      122.8       13.2       16.6       12.2     1012.9       14.8       13.1        0.8        0.0       14.0       0.00       41.6       1.09       0.00       74.4
6:14              236        4.8         94       13.2      122.8       13.2       16.6       12.2     1012.9       14.8       13.1        0.8        0.0       14.0       0.00       41.7       1.09       0.00       74.4
6:16              236        8.0         94       13.2      122.8       13.2       16.6       12.2     1013.1       14.8       13.1        0.8        0.0       14.0       0.00       41.8       1.14       0.00       74.4
6:17              236        6.4         94       13.2      122.8       13.2       16.6       12.2     1013.2       14.8       13.1        0.8        0.0       14.0       0.00       42.0       1.14       0.00       74.4
6:20              236        4.8         94       13.2      122.8       13.2       16.6       12.2     1013.2       14.8       13.1        0.8        0.0       14.0       0.00       42.1       1.14       0.00       74.4
6:22              236        4.8         94       13.2      122.8       13.2       16.6       12.2     1013.2       14.8       13.1        0.8        0.0       14.0       0.00       42.2       1.14       0.00       74.4
6:24              236        3.2         94       13.2      122.8       13.2       16.6       12.2     1013.3       14.8       13.1        0.8        0.0       14.0       0.00       42.3       1.14       0.00       74.4
6:26              236        3.2         94       13.2      122.8       13.2       16.6       12.2     1013.3       14.8       13.1        0.8        0.0       14.0       0.00       42.4       1.14       0.00       74.4
6:28              236        1.6         94       13.2      122.8       13.2       16.7       12.3     1013.3       14.8       13.1        0.8        0.0       14.0       0.00       42.5       1.14       0.00       74.4
6:30              236        3.2         94       13.2      122.8       13.2       16.7       12.3     1013.3       14.8       13.1        0.8        0.0       14.0       0.00       42.5       1.14       0.00       74.4
6:32              236        3.2         94       13.2      122.8       13.2       16.7       12.3     1013.3       14.8       13.1        0.8        0.0       14.0       0.00       42.6       1.19       0.00       74.4
6:33              236        3.2         94       13.2      122.8       13.2       16.7       12.3     1013.3       14.8       13.1        0.8        0.0       14.0       0.00       42.7       1.19       0.00       74.4
6:36              236        4.8         94       13.2      122.8       13.2       16.7       12.3     1013.4       14.8       13.1        0.8        0.0       14.0       0.00       42.8       1.19       0.00       74.4
6:37              236        4.8         94       13.2      122.8       13.2       16.7       12.3     1013.5       14.8       13.1        0.8        0.0       14.0       0.00       42.9       1.19       0.00       74.4
6:40              236        4.8         94       13.2      122.8       13.2       16.7       12.3     1013.6       14.8       13.1        0.8        0.0       14.0       0.00       43.0       1.19       0.00       74.4
6:42              236        4.8         94       13.2      122.8       13.2       16.7       12.3     1013.6       14.8       13.1        0.8        0.0       14.0       0.00       43.2       1.19       0.00       74.4
6:43              236        4.8         94       13.2      122.8       13.2       16.7       12.3     1013.7       14.8       13.1        0.8        0.0       14.0       0.00       43.3       1.19       0.00       74.4
6:46              236        1.6         94       13.2      122.8       13.2       16.7       12.3     1013.6       14.8       13.1        0.8        0.0       14.0       0.00       43.4       1.24       0.00       74.4
6:48              236        4.8         94       13.2      122.8       13.2       16.7       12.3     1013.6       14.8       13.1        0.8        0.0       14.0       0.00       43.5       1.24       0.00       74.4
6:50              236        8.0         94       13.2      122.8       13.2       16.6       12.2     1013.7       14.8       13.1        0.8        0.0       14.0       0.00       43.7       1.24       0.00       74.4
6:52              238        3.2         94       13.2      122.8       13.2       16.6       12.2     1013.8       14.8       13.1        0.8        0.0       14.0       0.00       43.8       1.24       0.00       74.4
6:54              240        6.4         94       13.2      122.8       13.2       16.6       12.2     1013.7       14.8       13.1        0.8        0.0       14.0       0.00       43.9       1.24       0.00       74.4
6:56              240        6.4         94       13.2      122.8       13.2       16.6       12.2     1013.7       14.8       13.1        0.8        0.0       14.0       0.00       44.0       1.24       0.00       74.4
6:57              240        4.8         94       13.2      122.8       13.2       16.6       12.2     1013.8       14.8       13.1        0.8        0.0       14.0       0.00       44.2       1.24       0.00       74.4
7:00              240        3.2         94       13.2      122.8       13.2       16.6       12.2     1013.9       14.8       13.1        0.8        0.0       14.0       0.00       44.3       1.24       0.00       74.4
7:01              240        6.4         94       13.2      122.8       13.2       16.7       12.3     1013.9       14.8       13.1        0.8        0.0       14.0       0.00       44.4       1.29       0.00       74.4
7:04              240        6.4         94       13.2      122.8       13.2       16.7       12.3     1013.9       14.8       13.1        0.8        0.0       14.0       0.00       44.5       1.29       0.00       74.4
7:06              240        3.2         94       13.2      122.8       13.2       16.7       12.3     1014.0       14.8       13.1        0.8        0.0       14.0       0.00       44.6       1.29       0.00       74.4
7:08              240        4.8         94       13.2      122.8       13.2       16.6       12.2     1013.9       14.8       13.1        0.8        0.0       14.0       0.00       44.8       1.29       0.00       74.4
7:10              240        4.8         94       13.2      122.8       13.2       16.6       12.2     1013.9       14.8       13.1        0.8        0.0       14.0       0.00       44.9       1.29       0.00       74.4
7:12              241        9.7         94       13.2      122.8       11.3       16.6       12.2     1013.9       14.8       13.1        0.8        0.0       14.0       0.00       45.1       1.29       0.00       74.4
7:13              241        4.8         94       13.2      122.8       13.2       16.6       12.2     1013.9       14.8       13.1        0.8        0.0       14.0       0.00       45.2       1.29       0.00       74.4
7:16              242        4.8         93       13.1      122.8       13.1       16.5       12.0     1013.9       14.8       13.1        0.8        0.0       14.0       0.00       45.3       1.34       0.00       74.4
7:18              242        4.8         93       13.2      122.8       13.2       16.5       12.1     1013.9       14.8       13.1        0.8        0.0       14.0       0.00       45.4       1.34       0.00       74.4
7:20              242        4.8         94       13.2      122.8       13.2       16.6       12.2     1013.9       14.8       13.1        0.8        0.0       14.0       0.00       45.5       1.34       0.00       74.4
7:22              242        3.2         93       13.2      122.8       13.2       16.6       12.1     1014.0       14.8       13.1        0.8        0.0       14.0       0.00       45.6       1.34       0.00       74.4
7:24              242        3.2         93       13.2      122.8       13.2       16.6       12.1     1014.0       14.8       13.1        0.8        0.0       14.0       0.00       45.7       1.34       0.00       74.4
7:25              242        3.2         93       13.2      122.8       13.2       16.6       12.1     1013.9       14.8       13.1        0.8        0.0       14.0       0.00       45.8       1.34       0.00       74.4
7:27              242        6.4         93       13.3      122.8       13.3       16.7       12.2     1014.1       14.8       13.1        0.8        0.0       14.0       0.00       45.9       1.34       0.00       74.4
7:30              242        3.2         93       13.2      122.8       13.2       16.6       12.1     1014.1       14.8       13.1        0.8        0.0       14.0       0.00       46.0       1.34       0.00       74.4
7:32              243        4.8         93       13.2      122.8       13.2       16.6       12.1     1014.1       14.8       13.1        0.8        0.0       14.0       0.00       46.2       1.39       0.00       74.4
7:34              242        8.0         93       13.2      122.8       12.1       16.6       12.1     1014.1       14.8       13.1        0.8        0.0       14.0       0.00       46.3       1.39       0.00       74.4
7:36              243        4.8         92       13.2      122.8       13.2       16.5       12.0     1014.1       14.8       13.1        0.8        0.0       14.0       0.00       46.4       1.39       0.00       74.4
7:38              243        3.2         93       13.3      122.8       13.3       16.7       12.2     1014.2       14.8       13.1        0.8        0.0       14.0       0.00       46.5       1.39       0.00       74.4
7:40              243        3.2         92       13.3      122.8       13.3       16.6       12.1     1014.1       14.8       13.1        0.8        0.0       14.0       0.00       46.6       1.39       0.00       74.4
7:42              243        6.4         92       13.4      122.8       13.4       16.7       12.1     1014.2       14.8       13.1        0.8        0.0       14.0       0.00       46.7       1.39       0.00       74.4
7:44              244       11.3         92       13.4      122.8       13.4       16.7       12.1     1014.2       14.8       13.1        0.8        0.0       14.0       0.00       46.9       1.39       0.00       74.4
7:46              244        4.8         92       13.4      122.8       13.4       16.7       12.1     1014.2       14.8       13.1        0.8        0.0       14.0       0.00       47.0       1.44       0.00       74.4
7:48              244        4.8         91       13.4      122.8       13.4       16.6       12.0     1014.1       14.8       13.1        0.8        0.0       14.0       0.00       47.1       1.44       0.00       74.4
7:50              245        6.4         91       13.5      122.8       13.5       16.7       12.1     1014.1       14.8       13.1        0.8        0.0       14.0       0.00       47.2       1.44       0.00       74.4
7:52              245        3.2         91       13.5      122.8       13.5       16.7       12.1     1014.1       14.8       13.1        0.8        0.0       14.0       0.00       47.3       1.44       0.00       74.4
7:54              244        3.2         91       13.6      122.8       13.6       16.8       12.1     1014.3       14.8       13.1        0.8        0.0       14.0       0.00       47.4       1.44       0.00       74.4
7:56              245        8.0         90       13.6      122.8       13.6       16.7       12.0     1014.4       14.8       13.1        0.8        0.0       14.0       0.00       47.6       1.44       0.00       74.4
7:58              249        4.8         90       13.6      122.8       13.6       16.7       12.0     1014.5       14.8       13.1        0.8        0.0       14.0       0.00       47.8       1.44       0.00       74.4
8:00              249        6.4         90       13.7      122.8       13.7       16.8       12.1     1014.6       14.8       13.1        0.8        0.0       14.0       0.00       47.9       1.44       0.00       74.4
8:02              249        4.8         90       13.7      122.8       13.7       16.9       12.1     1014.4       14.8       13.1        0.8        0.0       14.0       0.00       48.0       1.48       0.00       74.4
8:04              251        6.4         89       13.8      122.8       13.8       16.8       12.0     1014.6       14.8       13.1        0.8        0.0       14.0       0.00       48.2       1.48       0.00       74.4
8:06              250        4.8         89       13.8      122.8       13.8       16.8       12.0     1014.4       14.8       13.1        0.8        0.0       14.0       0.00       48.4       1.48       0.00       74.4
8:08              250       12.9         88       13.8      122.8       10.6       16.7       11.8     1014.5       14.8       13.1        0.8        0.0       14.0       0.00       48.5       1.48       0.00       74.4
8:10              251        6.4         88       13.8      122.8       13.8       16.8       11.9     1014.7       14.8       13.1        0.8        0.0       14.0       0.00       48.7       1.48       0.00       74.4
8:12              245        4.8         88       13.8      122.8       13.8       16.8       11.9     1014.6       14.8       13.1        0.8        0.0       14.0       0.00       48.9       1.48       0.00       74.4
8:14              245        6.4         87       13.9      122.8       13.9       16.8       11.8     1014.5       14.8       13.1        0.8        0.0       14.0       0.00       49.0       1.48       0.00       74.4
8:16              245        4.8         87       13.9      122.8       13.9       16.8       11.8     1014.7       14.8       13.1        0.8        0.0       14.0       0.00       49.2       1.52       0.00       74.4
8:18              244        6.4         87       13.9      122.8       13.9       16.8       11.8     1014.7       14.8       13.1        0.8        0.0       14.0       0.00       49.3       1.52       0.00       74.4
8:20              246       11.3         87       14.0      122.8       13.0       16.9       11.9     1014.7       14.8       13.1        0.8        0.0       14.0       0.00       49.5       1.52       0.00       74.4
8:22              246        6.4         86       14.0      122.8       14.0       16.8       11.7     1014.8       14.8       13.1        0.8        0.0       14.0       0.00       49.7       1.52       0.00       74.4
8:24              250        6.4         86       14.1      122.8       14.1       16.9       11.8     1014.7       14.8       13.1        0.8        0.0       14.0       0.00       49.8       1.52       0.00       74.4
8:26              250        6.4         86       14.1      122.8       14.1       16.9       11.8     1014.7       14.8       13.1        0.8        0.0       14.0       0.00       50.0       1.52       0.00       74.4
8:28              254        8.0         85       14.2      122.8       13.1       16.9       11.7     1014.7       14.8       13.1        0.8        0.0       14.0       0.00       50.1       1.52       0.00       74.4
8:30              258        6.4         84       14.2      122.8       14.2       16.8       11.5     1014.7       14.8       13.1        0.8        0.0       14.0       0.00       50.3       1.52       0.00       74.4
8:32              259        9.7         84       14.3      122.8       14.3       16.9       11.6     1014.7       14.8       13.1        0.8        0.0       14.0       0.00       50.5       1.56       0.00       74.4
8:34              263       14.5         82       14.3      122.8       12.6       16.8       11.3     1014.8       14.8       13.1        0.8        0.0       14.0       0.00       50.9       1.56       0.00       74.4
8:35              257        6.4         82       14.3      122.8       14.3       16.8       11.3     1014.8       14.8       13.1        0.8        0.0       14.0       0.00       51.1       1.56       0.00       74.4
8:38              260       14.5         82       14.4      122.8       10.6       16.9       11.4     1014.9       14.8       13.1        0.8        0.0       14.0       0.00       51.4       1.56       0.00       74.4
8:40              264       11.3         82       14.4      122.8       12.1       16.9       11.4     1014.8       14.8       13.1        0.8        0.0       14.0       0.00       51.6       1.56       0.00       74.4
8:42              265        3.2         81       14.5      122.8       14.5       16.9       11.3     1014.9       14.8       13.1        0.8        0.0       14.0       0.00       51.8       1.56       0.00       74.4
8:44              261       11.3         81       14.6      122.8       12.9       17.0       11.3     1014.8       14.8       13.1        0.8        0.0       14.0       0.00       52.0       1.56       0.00       74.4
8:46              264       12.9         81       14.7      122.8       11.6       17.1       11.4     1014.9       14.8       13.1        0.8        0.0       14.0       0.00       52.3       1.60       0.00       74.4
8:48              242       16.1         80       14.7      122.8       14.7       17.1       11.3     1015.0       14.8       13.1        0.8        0.0       14.0       0.00       52.6       1.60       0.00       74.4
8:50              254        8.0         80       14.8      122.8       14.8       17.1       11.4     1015.0       14.8       13.1        0.8        0.0       14.0       0.00       52.8       1.60       0.00       74.4
8:52              257        8.0         80       14.9      122.8       14.9       17.2       11.5     1015.0       14.9       13.1        0.8        0.0       14.0       0.00       53.0       1.60       0.00       74.4
8:54              268        6.4         80       15.0      122.8       15.0       17.3       11.6     1014.9       15.0       13.1        0.8        0.0       14.0       0.00       53.2       1.60       0.00       74.4
8:56              258       11.3         79       15.1      122.8       15.1       17.3       11.4     1015.0       15.1       13.1        0.8        0.0       14.0       0.00       53.4       1.60       0.00       74.4
8:58              258       11.3         79       15.1      122.8       15.1       17.4       11.5     1015.0       15.1       13.1        0.8        0.0       14.0       0.00       53.6       1.60       0.00       74.4
9:00              249        8.0         78       15.1      122.8       15.1       17.3       11.3     1014.9       15.1       13.1        0.8        0.0       14.0       0.00       53.9       1.60       0.00       74.4
9:02              249       12.9         78       15.1      122.8       12.8       17.3       11.3     1015.0       15.1       13.1        0.8        0.0       14.0       0.00       54.2       1.63       0.00       74.4
9:04              254       11.3         77       15.2      122.8       12.9       17.3       11.2     1015.1       15.2       13.1        0.8        0.0       14.0       0.00       54.4       1.63       0.00       74.4
9:06              271        6.4         77       15.2      122.8       15.2       17.3       11.2     1015.1       15.2       13.1        0.8        0.0       14.0       0.00       54.8       1.63       0.00       74.4
9:08              286       20.9         75       15.2      122.8       12.3       17.2       10.8     1015.0       15.2       13.1        0.8        0.0       14.0       0.00       55.1       1.63       0.00       74.4
9:10              274       11.3         75       15.2      122.8       13.6       17.2       10.8     1015.1       15.2       13.1        0.8        0.0       14.0       0.00       55.4       1.63       0.00       74.4
9:12              267       19.3         74       15.3      122.8       12.4       17.2       10.7     1015.1       15.3       13.1        0.8        0.0       14.0       0.00       55.7       1.63       0.00       74.4
9:13              265        9.7         73       15.4      122.8       13.8       17.2       10.6     1015.2       15.4       13.1        0.8        0.0       14.0       0.00       56.0       1.63       0.00       74.4
9:16              280       19.3         73       15.4      122.8       13.1       17.2       10.6     1015.3       15.4       13.1        0.8        0.0       14.0       0.00       56.4       1.66       0.00       74.4
9:18              260        6.4         72       15.4      122.8       15.4       17.2       10.4     1015.2       15.4       13.1        0.8        0.0       14.0       0.00       56.7       1.66       0.00       74.4
9:20              267        6.4         73       15.5      122.8       15.5       17.3       10.7     1015.3       15.5       13.1        0.8        0.0       14.0       0.00       56.9       1.66       0.00       74.4
9:22              248       11.3         72       15.6      122.8       15.6       17.3       10.5     1015.3       15.6       13.1        0.8        0.0       14.0       0.00       57.2       1.66       0.00       74.4
9:24              269       17.7         71       15.6      122.8       13.4       17.3       10.4     1015.4       15.6       13.1        0.8        0.0       14.0       0.00       57.6       1.66       0.00       74.4
9:26              265       25.7         68       15.7      122.8       11.2       17.2        9.8     1015.4       15.7       13.1        0.8        0.0       14.0       0.00       58.1       1.66       0.00       74.4
9:28              267       20.9         68       15.7      122.8       12.2       17.2        9.8     1015.5       15.7       13.1        0.8        0.0       14.0       0.00       58.5       1.66       0.00       74.4
9:30              267        4.8         67       15.7      122.8       15.7       17.2        9.6     1015.4       15.8       13.1        0.8        0.0       14.0       0.00       58.7       1.66       0.00       74.4
9:32              240        6.4         68       15.8      122.8       15.8       17.3        9.9     1015.5       15.8       13.1        0.8        0.0       14.0       0.00       58.9       1.68       0.00       74.4
9:34              268       11.3         67       15.8      122.8       13.6       17.3        9.7     1015.6       15.8       13.1        0.8        0.0       14.0       0.00       59.1       1.68       0.00       74.4
9:36              298       11.3         65       15.8      122.8       15.8       17.1        9.3     1015.6       15.8       13.1        0.8        0.0       14.0       0.00       59.3       1.68       0.00       74.4
9:38              303        6.4         66       15.8      122.8       15.8       17.2        9.5     1015.7       15.8       13.1        0.8        0.0       14.0       0.00       59.5       1.68       0.00       74.4
9:40              280        6.4         66       15.8      122.8       15.8       17.2        9.5     1015.7       15.8       13.1        0.8        0.0       14.0       0.00       59.7       1.68       0.00       74.4
9:42              287        6.4         66       15.8      122.8       15.8       17.2        9.5     1015.6       15.8       13.1        0.8        0.0       14.0       0.00       59.8       1.68       0.00       74.4
9:44              303       14.5         65       15.8      122.8       13.0       17.1        9.3     1015.7       15.8       13.1        0.8        0.0       14.0       0.00       60.1       1.68       0.00       74.4
9:46              261       11.3         64       15.9      122.8       13.7       17.1        9.1     1015.8       15.9       13.1        0.8        0.0       14.0       0.00       60.5       1.70       0.00       74.4
9:48              275       14.5         64       15.9      122.8       14.3       17.1        9.1     1015.7       15.9       13.1        0.8        0.0       14.0       0.00       60.8       1.70       0.00       74.4
9:50              273        6.4         64       15.9      122.8       15.9       17.1        9.1     1015.8       15.9       13.1        0.8        0.0       14.0       0.00       61.0       1.70       0.00       74.4
9:52              295       12.9         63       15.9      122.8       15.0       17.1        8.9     1015.8       15.9       13.1        0.8        0.0       14.0       0.00       61.4       1.70       0.00       74.4
9:54              283       14.5         63       15.9      122.8       13.7       17.1        8.9     1015.8       15.9       13.1        0.8        0.0       14.0       0.00       61.7       1.70       0.00       74.4
9:56              271       16.1         63       15.9      122.8       13.7       17.1        8.9     1015.8       15.9       13.1        0.8        0.0       14.0       0.00       62.1       1.70       0.00       74.4
9:58              267       16.1         64       15.9      122.8       14.3       17.1        9.1     1015.8       15.9       13.1        0.8        0.0       14.0       0.00       62.3       1.70       0.00       74.4
10:00             266       11.3         64       15.9      122.8       15.9       17.1        9.1     1015.8       15.9       13.1        0.8        0.0       14.0       0.00       62.6       1.70       0.00       74.4
10:02             250       11.3         64       15.9      122.8       15.0       17.1        9.1     1015.8       15.9       13.1        0.8        0.0       14.0       0.00       62.9       1.72       0.00       74.4
10:04             271       17.7         65       15.9      122.8       14.3       17.2        9.3     1015.8       15.9       13.1        0.8        0.0       14.0       0.00       63.2       1.72       0.00       74.4
10:06             266       16.1         64       15.9      122.8       15.9       17.1        9.1     1015.9       15.9       13.1        0.8        0.0       14.0       0.00       63.5       1.72       0.00       74.4
10:08             265       12.9         63       15.9      122.8       14.4       17.1        8.9     1015.9       15.9       13.1        0.8        0.0       14.0       0.00       63.9       1.72       0.00       74.4
10:10             270        9.7         63       15.9      122.8       15.9       17.1        8.9     1015.8       15.9       13.1        0.8        0.0       14.0       0.00       64.2       1.72       0.00       74.4
10:12             275        4.8         64       16.0      122.8       16.0       17.3        9.2     1015.8       16.0       13.1        0.8        0.0       14.0       0.00       64.3       1.72       0.00       74.4
10:14             300       11.3         64       16.1      122.8       16.1       17.3        9.3     1015.7       16.1       13.1        0.8        0.0       14.0       0.00       64.5       1.72       0.00       74.4
10:16             286       12.9         65       16.1      122.8       16.1       17.4        9.5     1015.7       16.1       13.1        0.8        0.0       14.0       0.00       64.7       1.74       0.00       74.4
10:18             265        9.7         64       16.1      122.8       16.1       17.4        9.3     1015.8       16.1       13.1        0.8        0.0       14.0       0.00       65.0       1.74       0.00       74.4
10:20             285        6.4         66       16.1      122.8       16.1       17.5        9.8     1015.7       16.1       13.1        0.8        0.0       14.0       0.00       65.1       1.74       0.00       74.4
10:22             253       14.5         64       16.2      122.8       16.2       17.4        9.4     1015.8       16.2       13.1        0.8        0.0       14.0       0.00       65.5       1.74       0.00       74.4
10:24             254        6.4         64       16.2      122.8       16.2       17.5        9.4     1015.8       16.2       13.1        0.8        0.0       14.0       0.00       65.6       1.74       0.00       74.4
10:26             267       11.3         63       16.3      122.8       16.3       17.5        9.2     1015.8       16.3       13.1        0.8        0.0       14.0       0.00       65.9       1.74       0.00       74.4
10:28             262       17.7         64       16.3      122.8       16.3       17.6        9.5     1015.8       16.3       13.1        0.8        0.0       14.0       0.00       66.2       1.74       0.00       74.4
10:30             275       11.3         63       16.4      122.8       14.9       17.6        9.4     1015.8       16.4       13.1        0.8        0.0       14.0       0.00       66.5       1.74       0.00       74.4
10:32             271       12.9         62       16.5      122.8       14.4       17.6        9.2     1015.9       16.5       13.1        0.8        0.0       14.0       0.00       66.8       1.76       0.00       74.4
10:34             264        9.7         62       16.6      122.8       16.6       17.7        9.3     1015.8       16.6       13.1        0.8        0.0       14.0       0.00       67.0       1.76       0.00       74.4
10:36             264       14.5         62       16.6      122.8       14.5       17.7        9.3     1015.8       16.6       13.1        0.8        0.0       14.0       0.00       67.3       1.76       0.00       74.4
10:38             259       14.5         62       16.7      122.8       14.0       17.8        9.4     1015.8       16.7       13.1        0.8        0.0       14.0       0.00       67.6       1.76       0.00       74.4
10:40             261       12.9         60       16.8      122.8       15.3       17.8        9.0     1015.9       16.8       13.1        0.8        0.0       14.0       0.00       67.9       1.76       0.00       74.4
10:42             297        6.4         59       16.8      122.8       16.8       17.7        8.7     1015.8       16.8       13.1        0.8        0.0       14.0       0.00       68.2       1.76       0.00       74.4
10:44             273       12.9         60       16.8      122.8       14.1       17.8        9.0     1015.8       16.8       13.1        0.8        0.0       14.0       0.00       68.5       1.76       0.00       74.4
10:46             290       14.5         60       16.8      122.8       14.7       17.8        9.0     1015.8       16.8       13.1        0.8        0.0       14.0       0.00       68.7       1.77       0.00       74.4
10:48             268       14.5         61       16.8      122.8       14.7       17.8        9.2     1015.8       16.8       13.1        0.8        0.0       14.0       0.00       69.0       1.77       0.00       74.4
10:50             289       14.5         62       16.9      122.8       14.2       18.0        9.6     1015.8       16.9       13.1        0.8        0.0       14.0       0.00       69.3       1.77       0.00       74.4
10:52             281       22.5         62       17.0      122.8       15.5       18.1        9.7     1015.8       17.0       13.1        0.8        0.0       14.0       0.00       69.7       1.77       0.00       74.4
10:54             279       11.3         61       17.1      122.8       17.1       18.1        9.5     1015.8       17.1       13.1        0.8        0.0       14.0       0.00       70.0       1.77       0.00       74.4
10:56             277       19.3         61       17.1      122.8       15.7       18.2        9.5     1015.9       17.1       13.1        0.8        0.0       14.0       0.00       70.4       1.77       0.00       74.4
10:58             257       16.1         60       17.2      122.8       15.1       18.2        9.3     1015.8       17.2       13.1        0.8        0.0       14.0       0.00       70.7       1.77       0.00       74.4
11:00             261       16.1         61       17.2      122.8       17.2       18.3        9.6     1015.8       17.2       13.1        0.8        0.0       14.0       0.00       71.0       1.77       0.00       74.4
11:02             271       11.3         62       17.4      122.8       17.4       18.5       10.0     1015.7       17.4       13.1        0.8        0.0       13.6       0.00       71.3       1.78       0.00       74.4
11:04             249       12.9         61       17.6      122.8       16.7       18.6       10.0     1015.7       17.6       13.1        0.8        0.0       13.6       0.00       71.5       1.78       0.00       74.4
11:06             236       17.7         60       17.6      122.8       17.6       18.6        9.8     1015.7       17.6       13.1        0.8        0.0       13.6       0.00       71.8       1.78       0.00       74.4
11:08             284        6.4         60       17.6      122.8       17.6       18.6        9.8     1015.7       17.6       13.1        0.8        0.0       13.6       0.00       72.1       1.78       0.00       74.4
11:10             275        9.7         61       17.6      122.8       17.6       18.6       10.0     1015.7       17.6       13.1        0.8        0.0       13.6       0.00       72.3       1.78       0.00       74.4
11:12             300        6.4         61       17.6      122.8       17.6       18.6       10.0     1015.7       17.6       13.1        0.8        0.0       13.6       0.00       72.6       1.78       0.00       74.4
11:14             276       11.3         61       17.5      122.8       17.5       18.6        9.9     1015.7       17.6       13.1        0.8        0.0       13.6       0.00       72.8       1.78       0.00       74.4
11:16             274        6.4         61       17.5      122.8       17.5       18.6        9.9     1015.6       17.6       13.1        0.8        0.0       13.6       0.00       73.0       1.79       0.00       74.4
11:18             302        3.2         61       17.6      122.8       17.6       18.6       10.0     1015.7       17.6       13.1        0.8        0.0       13.6       0.00       73.2       1.79       0.00       74.4
11:20             284       11.3         61       17.6      122.8       17.6       18.6       10.0     1015.6       17.6       13.1        0.8        0.0       13.6       0.00       73.4       1.79       0.00       74.4
11:22             266       11.3         61       17.6      122.8       16.1       18.6       10.0     1015.7       17.6       13.1        0.8        0.0       13.6       0.00       73.6       1.79       0.00       74.4
11:24             251       16.1         61       17.6      122.8       16.8       18.7       10.0     1015.6       17.6       13.1        0.8        0.0       13.6       0.00       73.9       1.79       0.00       74.4
11:26             275       16.1         61       17.6      122.8       13.9       18.7       10.0     1015.6       17.6       13.1        0.8        0.0       13.6       0.00       74.2       1.79       0.00       74.4
11:28             246       14.5         60       17.6      122.8       14.4       18.6        9.7     1015.6       17.6       13.1        0.8        0.0       13.6       0.00       74.5       1.79       0.00       74.4
11:30             228        8.0         60       17.6      122.8       16.8       18.6        9.8     1015.7       17.6       13.1        0.8        0.0       13.6       0.00       74.9       1.79       0.00       74.4
11:32             234        3.2         60       17.7      122.8       17.7       18.7        9.8     1015.6       17.7       13.1        0.8        0.0       13.2       0.00       75.1       1.79       0.00       74.4
11:34             267       20.9         62       17.8      122.8       17.8       18.9       10.4     1015.6       17.8       13.1        0.8        0.0       13.2       0.00       75.2       1.79       0.00       74.4
11:36             269       11.3         60       17.8      122.8       17.8       18.8       10.0     1015.7       17.8       13.1        0.8        0.0       13.2       0.00       75.5       1.79       0.00       74.4
11:38             290       11.3         60       17.8      122.8       17.0       18.8       10.0     1015.7       17.8       13.1        0.8        0.0       13.2       0.00       75.9       1.79       0.00       74.4
11:40             290       14.5         62       17.6      122.8       16.8       18.7       10.3     1015.8       17.8       13.1        0.8        0.0       13.2       0.00       76.3       1.79       0.00       74.4
11:42             309       11.3         63       17.4      122.8       16.5       18.6       10.3     1015.8       17.8       13.1        0.8        0.0       13.2       0.00       76.6       1.79       0.00       74.4
11:44             292       20.9         63       17.1      122.8       13.0       18.3       10.0     1015.9       17.8       13.1        0.8        0.0       13.2       0.00       77.0       1.79       0.00       74.4
11:46             296       17.7         64       16.9      122.8       16.1       18.2       10.1     1015.9       17.8       13.1        0.8        0.0       13.2       0.00       77.5       1.80       0.00       74.4
11:48             324       16.1         65       16.8      122.8       13.0       18.1       10.2     1015.8       17.8       13.1        0.8        0.0       13.2       0.00       77.7       1.80       0.00       74.4
11:50             316        8.0         65       16.7      122.8       16.7       18.0       10.1     1015.8       17.8       13.1        0.8        0.0       13.2       0.00       77.9       1.80       0.00       74.4
11:52             309       14.5         64       16.7      122.8       16.7       18.0        9.9     1015.7       17.8       13.1        0.8        0.0       13.2       0.00       78.2       1.80       0.00       74.4
11:54             257       17.7         63       16.7      122.8       15.8       17.9        9.6     1015.7       17.8       13.1        0.8        0.0       13.2       0.00       78.6       1.80       0.00       74.4
11:56             287        9.7         64       16.7      122.8       16.7       17.9        9.8     1015.7       17.8       13.1        0.8        0.0       13.2       0.00       78.9       1.80       0.00       74.4
11:58             279       12.9         64       16.8      122.8       15.3       18.0        9.9     1015.8       17.8       13.1        0.8        0.0       13.2       0.00       79.2       1.80       0.00       74.4
12:00             302       16.1         63       16.8      122.8       14.1       18.0        9.8     1015.7       17.8       13.1        0.8        0.0       13.2       0.00       79.6       1.80       0.00       74.4
12:02             311        8.0         63       16.8      122.8       16.8       18.0        9.8     1015.6       17.8       13.1        0.8        0.0       13.2       0.00       80.0       1.81       0.00       74.4
12:04             307       22.5         63       16.9      122.8       14.9       18.1        9.9     1015.7       17.8       13.1        0.8        0.0       13.2       0.00       80.4       1.81       0.00       74.4
12:06             278        9.7         61       17.0      122.8       17.0       18.1        9.4     1015.7       17.8       13.1        0.8        0.0       13.2       0.00       80.8       1.81       0.00       74.4
12:08             258       24.1         61       17.1      122.8       15.1       18.2        9.5     1015.7       17.8       13.1        0.8        0.0       13.2       0.00       81.2       1.81       0.00       74.4
12:10             279       14.5         60       17.2      122.8       15.1       18.2        9.3     1015.7       17.8       13.1        0.8        0.0       13.2       0.00       81.5       1.81       0.00       74.4
12:12             280       17.7         62       17.3      122.8       13.3       18.5       10.0     1015.6       17.8       13.1        0.8        0.0       13.2       0.00       81.8       1.81       0.00       74.4
12:14             263       17.7         60       17.4      122.8       14.2       18.4        9.6     1015.6       17.8       13.1        0.8        0.0       13.2       0.00       82.2       1.81       0.00       74.4
12:16             269       11.3         60       17.4      122.8       16.0       18.4        9.6     1015.6       17.8       13.1        0.8        0.0       13.2       0.00       82.5       1.82       0.00       74.4
12:18             250       20.9         60       17.5      122.8       14.9       18.5        9.7     1015.6       17.8       13.1        0.8        0.0       13.2       0.00       82.8       1.82       0.00       74.4
12:20             264       16.1         60       17.6      122.8       13.9       18.6        9.7     1015.6       17.8       13.1        0.8        0.0       13.2       0.00       83.0       1.82       0.00       74.4
12:22             273        4.8         59       17.7      122.8       17.7       18.6        9.6     1015.6       17.8       13.1        0.8        0.0       13.2       0.00       83.3       1.82       0.00       74.4
12:24             250       17.7         59       17.8      122.8       14.2       18.7        9.7     1015.6       17.8       13.1        0.8        0.0       13.2       0.00       83.7       1.82       0.00       74.4
12:26             286       12.9         57       17.8      122.8       15.3       18.6        9.2     1015.7       17.8       13.1        0.8        0.0       13.2       0.00       84.1       1.82       0.00       74.4
12:28             274       22.5         58       17.7      122.8       15.2       18.6        9.4     1015.6       17.8       13.1        0.8        0.0       13.2       0.00       84.5       1.82       0.00       74.4
12:30             286       12.9         58       17.8      122.8       17.8       18.7        9.4     1015.6       17.8       13.1        0.8        0.0       13.2       0.00       84.8       1.82       0.00       74.4
12:32             269       14.5         59       17.8      122.8       14.8       18.8        9.7     1015.6       17.8       13.1        0.8        0.0       12.0       0.00       85.2       1.82       0.00       74.4
12:34             245       19.3         59       17.9      122.8       14.3       18.8        9.8     1015.6       17.9       13.1        0.8        0.0       12.0       0.00       85.5       1.82       0.00       74.4
12:36             244       17.7         59       17.9      122.8       14.1       18.9        9.8     1015.5       17.9       13.1        0.8        0.0       12.0       0.00       85.9       1.82       0.00       74.4
12:38             286        6.4         59       18.0      122.8       18.0       18.9        9.9     1015.6       18.0       13.1        0.8        0.0       12.0       0.00       86.2       1.82       0.00       74.4
12:40             261       11.3         59       18.1      122.8       18.1       19.0        9.9     1015.6       18.1       13.1        0.8        0.0       12.0       0.00       86.5       1.82       0.00       74.4
12:42             265       14.5         59       18.1      122.8       15.1       19.1       10.0     1015.6       18.2       13.1        0.8        0.0       12.0       0.00       86.7       1.82       0.00       74.4
12:44             257       17.7         60       18.2      122.8       14.4       19.2       10.3     1015.5       18.2       13.1        0.8        0.0       12.0       0.00       87.1       1.82       0.00       74.4
12:46             285       17.7         59       18.3      122.8       16.4       19.3       10.2     1015.5       18.3       13.1        0.8        0.0       11.6       0.00       87.5       1.82       0.00       74.4
12:48             267       22.5         57       18.4      122.8       14.9       19.2        9.7     1015.6       18.4       13.1        0.8        0.0       11.6       0.00       87.9       1.82       0.00       74.4
12:50             233       20.9         57       18.3      122.8       16.4       19.2        9.7     1015.6       18.4       13.1        0.8        0.0       11.6       0.00       88.4       1.82       0.00       74.4
12:52             256       12.9         57       18.3      122.8       15.8       19.1        9.6     1015.6       18.4       13.1        0.8        0.0       11.6       0.00       88.9       1.82       0.00       74.4
12:54             273       11.3         57       18.2      122.8       18.2       19.1        9.6     1015.5       18.4       13.1        0.8        0.0       11.6       0.00       89.4       1.82       0.00       74.4
12:56             279       17.7         58       18.3      122.8       16.4       19.2        9.9     1015.5       18.4       13.1        0.8        0.0       11.6       0.00       89.7       1.82       0.00       74.4
12:58             263       19.3         58       18.3      122.8       16.9       19.2        9.9     1015.5       18.4       13.1        0.8        0.0       11.6       0.00       90.1       1.82       0.00       74.4
13:00             239       19.3         56       18.4      122.8       16.0       19.2        9.5     1015.5       18.4       13.1        0.8        0.0       11.6       0.00       90.5       1.82       0.00       74.4
13:02             267        9.7         56       18.4      122.8       18.4       19.2        9.5     1015.5       18.4       13.1        0.8        0.0       11.6       0.00       90.8       1.82       0.00       74.4
13:04             247       11.3         57       18.6      122.8       18.6       19.4        9.9     1015.5       18.6       13.1        0.8        0.0       11.6       0.00       91.2       1.82       0.00       74.4
13:06             265       12.9         56       18.8      122.8       17.0       19.6        9.9     1015.5       18.8       13.1        0.8        0.0       11.6       0.00       91.6       1.82       0.00       74.4
13:08             261       11.3         55       18.8      122.8       18.8       19.5        9.6     1015.6       18.8       13.1        0.8        0.0       11.6       0.00       91.9       1.82       0.00       74.4
13:10             279       12.9         55       18.8      122.8       16.4       19.5        9.6     1015.5       18.8       13.1        0.8        0.0       11.6       0.00       92.1       1.82       0.00       74.4
13:12             286       14.5         55       18.7      122.8       16.4       19.4        9.5     1015.4       18.8       13.1        0.8        0.0       11.6       0.00       92.4       1.82       0.00       74.4
13:14             291       19.3         55       18.7      122.8       15.3       19.4        9.5     1015.5       18.8       13.1        0.8        0.0       11.6       0.00       92.8       1.82       0.00       74.4
13:16             248       11.3         55       18.7      122.8       18.7       19.4        9.5     1015.4       18.8       13.1        0.8        0.0       11.6       0.00       93.0       1.82       0.00       74.4
13:18             248       25.7         55       18.8      122.8       13.8       19.5        9.6     1015.5       18.8       13.1        0.8        0.0       11.6       0.00       93.5       1.82       0.00       74.4
13:20             224        6.4         54       18.8      122.8       18.8       19.5        9.3     1015.5       18.8       13.1        0.8        0.0       11.6       0.00       94.0       1.82       0.00       74.4
13:22             219       17.7         55       18.8      122.8       16.5       19.5        9.6     1015.5       18.8       13.1        0.8        0.0       11.6       0.00       94.4       1.82       0.00       74.4
13:24             271       16.1         55       18.9      122.8       17.7       19.7        9.7     1015.5       18.9       13.1        0.8        0.0       11.6       0.00       94.8       1.82       0.00       74.4
13:26             198       14.5         55       19.1      122.8       17.8       19.8        9.9     1015.5       19.1       13.1        0.8        0.0       11.6       0.00       95.1       1.82       0.00       74.4
13:28             260       11.3         54       19.3      122.8       18.0       19.9        9.7     1015.4       19.3       13.1        0.8        0.0       11.6       0.00       95.4       1.82       0.00       74.4
13:30             239       17.7         54       19.3      122.8       16.6       20.0        9.8     1015.4       19.3       13.1        0.8        0.0       11.6       0.00       95.6       1.82       0.00       74.4
13:32             233        9.7         53       19.3      122.8       18.1       19.9        9.5     1015.6       19.4       13.1        0.8        0.0       11.6       0.00       95.9       1.82       0.00       74.4
13:34             239       20.9         53       19.2      122.8       15.1       19.8        9.4     1015.6       19.4       13.1        0.8        0.0       11.6       0.00       96.3       1.82       0.00       74.4
13:36             268       19.3         53       19.1      122.8       16.3       19.7        9.3     1015.5       19.4       13.1        0.8        0.0       11.6       0.00       96.8       1.82       0.00       74.4
13:38             246       14.5         52       18.9      122.8       17.1       19.5        8.9     1015.5       19.4       13.1        0.8        0.0       11.6       0.00       97.1       1.82       0.00       74.4
13:40             240       16.1         53       18.8      122.8       16.0       19.4        9.1     1015.5       19.4       13.1        0.8        0.0       11.6       0.00       97.5       1.82       0.00       74.4
13:42             225       19.3         53       18.8      122.8       14.8       19.4        9.0     1015.5       19.4       13.1        0.8        0.0       11.6       0.00       98.1       1.82       0.00       74.4
13:44             226       11.3         53       18.8      122.8       17.5       19.4        9.0     1015.5       19.4       13.1        0.8        0.0       11.6       0.00       98.4       1.82       0.00       74.4
13:46             221       12.9         55       18.8      122.8       17.5       19.5        9.6     1015.6       19.4       13.1        0.8        0.0       11.2       0.00       98.7       1.82       0.00       74.4
13:48             234       14.5         53       18.8      122.8       16.9       19.4        9.0     1015.6       19.4       13.1        0.8        0.0       11.2       0.00       99.0       1.82       0.00       74.4
13:50             217       14.5         52       18.8      122.8       18.8       19.4        8.8     1015.6       19.4       13.1        0.8        0.0       11.2       0.00       99.3       1.82       0.00       74.4
13:52             265       16.1         52       18.8      122.8       18.8       19.4        8.8     1015.6       19.4       13.1        0.8        0.0       11.2       0.00       99.7       1.82       0.00       74.4
13:54             244       14.5         53       18.8      122.8       18.8       19.4        9.0     1015.6       19.4       13.1        0.8        0.0       11.2       0.00      100.1       1.82       0.00       74.4
13:56             228       11.3         53       18.7      122.8       17.9       19.3        9.0     1015.6       19.4       13.1        0.8        0.0       11.2       0.00      100.3       1.82       0.00       74.4
13:58             270       14.5         53       18.7      122.8       18.7       19.3        8.9     1015.6       19.4       13.1        0.8        0.0       11.2       0.00      100.7       1.82       0.00       74.4
14:00             293       17.7         54       18.6      122.8       14.9       19.3        9.1     1015.8       19.4       13.1        0.8        0.0       11.2       0.00      101.2       1.82       0.00       74.4